sensor_id;sensor_type;location;lat;lon;timestamp;P1;durP1;ratioP1;P2;durP2;ratioP2
58581;SDS011;44361;51.476;5.700;2023-05-20T00:00:50;7.90;;;1.95;;
58581;SDS011;44361;51.476;5.700;2023-05-20T00:03:17;8.27;;;1.90;;
58581;SDS011;44361;51.476;5.700;2023-05-20T00:05:44;6.07;;;2.03;;
58581;SDS011;44361;51.476;5.700;2023-05-20T00:08:10;5.47;;;2.30;;
58581;SDS011;44361;51.476;5.700;2023-05-20T00:10:36;3.75;;;2.00;;
58581;SDS011;44361;51.476;5.700;2023-05-20T00:13:01;5.03;;;2.05;;
58581;SDS011;44361;51.476;5.700;2023-05-20T00:15:27;4.85;;;2.00;;
58581;SDS011;44361;51.476;5.700;2023-05-20T00:17:53;5.55;;;2.20;;
58581;SDS011;44361;51.476;5.700;2023-05-20T00:20:19;7.18;;;2.58;;
58581;SDS011;44361;51.476;5.700;2023-05-20T00:22:45;4.55;;;2.38;;
58581;SDS011;44361;51.476;5.700;2023-05-20T00:25:11;7.38;;;2.28;;
58581;SDS011;44361;51.476;5.700;2023-05-20T00:27:38;8.20;;;2.72;;
58581;SDS011;44361;51.476;5.700;2023-05-20T00:30:05;7.65;;;2.58;;
58581;SDS011;44361;51.476;5.700;2023-05-20T00:32:31;4.28;;;2.03;;
58581;SDS011;44361;51.476;5.700;2023-05-20T00:34:57;4.93;;;2.53;;
58581;SDS011;44361;51.476;5.700;2023-05-20T00:37:24;6.57;;;2.28;;
58581;SDS011;44361;51.476;5.700;2023-05-20T00:39:50;6.45;;;2.50;;
58581;SDS011;44361;51.476;5.700;2023-05-20T00:42:19;5.43;;;2.45;;
58581;SDS011;44361;51.476;5.700;2023-05-20T00:44:48;6.00;;;2.60;;
58581;SDS011;44361;51.476;5.700;2023-05-20T00:47:18;7.60;;;3.35;;
58581;SDS011;44361;51.476;5.700;2023-05-20T00:49:45;4.30;;;2.72;;
58581;SDS011;44361;51.476;5.700;2023-05-20T00:52:12;6.10;;;2.80;;
58581;SDS011;44361;51.476;5.700;2023-05-20T00:54:41;4.65;;;2.25;;
58581;SDS011;44361;51.476;5.700;2023-05-20T00:57:07;7.70;;;2.70;;
58581;SDS011;44361;51.476;5.700;2023-05-20T00:59:37;7.20;;;2.92;;
58581;SDS011;44361;51.476;5.700;2023-05-20T01:02:04;5.10;;;2.97;;
58581;SDS011;44361;51.476;5.700;2023-05-20T01:04:30;5.15;;;2.70;;
58581;SDS011;44361;51.476;5.700;2023-05-20T01:06:56;6.63;;;3.03;;
58581;SDS011;44361;51.476;5.700;2023-05-20T01:09:25;9.43;;;2.72;;
58581;SDS011;44361;51.476;5.700;2023-05-20T01:14:55;8.63;;;2.88;;
58581;SDS011;44361;51.476;5.700;2023-05-20T01:17:26;5.90;;;2.83;;
58581;SDS011;44361;51.476;5.700;2023-05-20T01:19:57;8.18;;;2.95;;
58581;SDS011;44361;51.476;5.700;2023-05-20T01:22:24;7.18;;;2.83;;
58581;SDS011;44361;51.476;5.700;2023-05-20T01:24:51;5.60;;;2.70;;
58581;SDS011;44361;51.476;5.700;2023-05-20T01:27:20;6.95;;;3.13;;
58581;SDS011;44361;51.476;5.700;2023-05-20T01:29:46;9.07;;;2.95;;
58581;SDS011;44361;51.476;5.700;2023-05-20T01:32:20;11.48;;;2.97;;
58581;SDS011;44361;51.476;5.700;2023-05-20T01:34:56;9.40;;;2.50;;
58581;SDS011;44361;51.476;5.700;2023-05-20T01:37:22;6.65;;;2.90;;
58581;SDS011;44361;51.476;5.700;2023-05-20T01:39:49;9.32;;;2.80;;
58581;SDS011;44361;51.476;5.700;2023-05-20T01:42:15;9.88;;;3.33;;
58581;SDS011;44361;51.476;5.700;2023-05-20T01:44:42;8.10;;;2.72;;
58581;SDS011;44361;51.476;5.700;2023-05-20T01:47:07;7.10;;;2.97;;
58581;SDS011;44361;51.476;5.700;2023-05-20T01:49:33;7.57;;;3.22;;
58581;SDS011;44361;51.476;5.700;2023-05-20T01:51:58;15.98;;;3.95;;
58581;SDS011;44361;51.476;5.700;2023-05-20T01:54:24;7.60;;;3.05;;
58581;SDS011;44361;51.476;5.700;2023-05-20T01:56:50;3.47;;;2.60;;
58581;SDS011;44361;51.476;5.700;2023-05-20T01:59:16;3.92;;;2.65;;
58581;SDS011;44361;51.476;5.700;2023-05-20T02:01:41;7.25;;;3.35;;
58581;SDS011;44361;51.476;5.700;2023-05-20T02:04:07;9.10;;;3.55;;
58581;SDS011;44361;51.476;5.700;2023-05-20T02:06:32;7.60;;;3.17;;
58581;SDS011;44361;51.476;5.700;2023-05-20T02:08:58;9.02;;;3.33;;
58581;SDS011;44361;51.476;5.700;2023-05-20T02:11:24;7.47;;;3.45;;
58581;SDS011;44361;51.476;5.700;2023-05-20T02:13:50;10.40;;;4.05;;
58581;SDS011;44361;51.476;5.700;2023-05-20T02:16:16;9.23;;;3.45;;
58581;SDS011;44361;51.476;5.700;2023-05-20T02:18:42;7.15;;;3.17;;
58581;SDS011;44361;51.476;5.700;2023-05-20T02:21:08;6.55;;;2.92;;
58581;SDS011;44361;51.476;5.700;2023-05-20T02:23:33;7.18;;;3.13;;
58581;SDS011;44361;51.476;5.700;2023-05-20T02:25:59;6.03;;;3.40;;
58581;SDS011;44361;51.476;5.700;2023-05-20T02:28:25;10.45;;;3.75;;
58581;SDS011;44361;51.476;5.700;2023-05-20T02:30:50;9.70;;;3.60;;
58581;SDS011;44361;51.476;5.700;2023-05-20T02:33:16;7.35;;;3.10;;
58581;SDS011;44361;51.476;5.700;2023-05-20T02:35:42;6.65;;;3.42;;
58581;SDS011;44361;51.476;5.700;2023-05-20T02:38:07;4.95;;;2.70;;
58581;SDS011;44361;51.476;5.700;2023-05-20T02:40:34;8.07;;;3.83;;
58581;SDS011;44361;51.476;5.700;2023-05-20T02:42:59;5.07;;;3.28;;
58581;SDS011;44361;51.476;5.700;2023-05-20T02:45:28;9.02;;;3.92;;
58581;SDS011;44361;51.476;5.700;2023-05-20T02:47:54;8.32;;;3.63;;
58581;SDS011;44361;51.476;5.700;2023-05-20T02:50:19;7.55;;;3.72;;
58581;SDS011;44361;51.476;5.700;2023-05-20T02:52:45;8.40;;;3.30;;
58581;SDS011;44361;51.476;5.700;2023-05-20T02:55:11;12.48;;;3.83;;
58581;SDS011;44361;51.476;5.700;2023-05-20T02:57:37;9.85;;;3.38;;
58581;SDS011;44361;51.476;5.700;2023-05-20T03:00:03;11.05;;;4.07;;
58581;SDS011;44361;51.476;5.700;2023-05-20T03:02:31;12.35;;;3.50;;
58581;SDS011;44361;51.476;5.700;2023-05-20T03:04:56;7.90;;;3.33;;
58581;SDS011;44361;51.476;5.700;2023-05-20T03:07:22;7.57;;;3.35;;
58581;SDS011;44361;51.476;5.700;2023-05-20T03:09:48;9.73;;;3.63;;
58581;SDS011;44361;51.476;5.700;2023-05-20T03:12:13;7.28;;;3.78;;
58581;SDS011;44361;51.476;5.700;2023-05-20T03:14:39;8.77;;;3.92;;
58581;SDS011;44361;51.476;5.700;2023-05-20T03:17:04;7.53;;;3.63;;
58581;SDS011;44361;51.476;5.700;2023-05-20T03:19:30;10.05;;;4.00;;
58581;SDS011;44361;51.476;5.700;2023-05-20T03:21:55;10.98;;;3.85;;
58581;SDS011;44361;51.476;5.700;2023-05-20T03:24:22;10.18;;;4.30;;
58581;SDS011;44361;51.476;5.700;2023-05-20T03:26:47;6.28;;;3.42;;
58581;SDS011;44361;51.476;5.700;2023-05-20T03:29:13;11.40;;;3.63;;
58581;SDS011;44361;51.476;5.700;2023-05-20T03:31:38;6.80;;;3.50;;
58581;SDS011;44361;51.476;5.700;2023-05-20T03:34:04;8.30;;;3.63;;
58581;SDS011;44361;51.476;5.700;2023-05-20T03:36:30;8.57;;;3.70;;
58581;SDS011;44361;51.476;5.700;2023-05-20T03:38:56;7.65;;;3.65;;
58581;SDS011;44361;51.476;5.700;2023-05-20T03:41:21;8.25;;;3.45;;
58581;SDS011;44361;51.476;5.700;2023-05-20T03:43:47;7.70;;;3.80;;
58581;SDS011;44361;51.476;5.700;2023-05-20T03:46:12;12.30;;;4.22;;
58581;SDS011;44361;51.476;5.700;2023-05-20T03:48:38;8.40;;;3.80;;
58581;SDS011;44361;51.476;5.700;2023-05-20T03:51:03;8.57;;;4.20;;
58581;SDS011;44361;51.476;5.700;2023-05-20T03:53:29;8.73;;;4.13;;
58581;SDS011;44361;51.476;5.700;2023-05-20T03:55:55;6.25;;;3.28;;
58581;SDS011;44361;51.476;5.700;2023-05-20T03:58:20;8.07;;;3.88;;
58581;SDS011;44361;51.476;5.700;2023-05-20T04:00:46;13.45;;;4.57;;
58581;SDS011;44361;51.476;5.700;2023-05-20T04:03:12;8.55;;;4.07;;
58581;SDS011;44361;51.476;5.700;2023-05-20T04:05:38;14.40;;;3.85;;
58581;SDS011;44361;51.476;5.700;2023-05-20T04:08:04;11.55;;;5.15;;
58581;SDS011;44361;51.476;5.700;2023-05-20T04:10:30;7.13;;;3.72;;
58581;SDS011;44361;51.476;5.700;2023-05-20T04:12:58;10.63;;;4.13;;
58581;SDS011;44361;51.476;5.700;2023-05-20T04:15:24;10.73;;;4.45;;
58581;SDS011;44361;51.476;5.700;2023-05-20T04:17:50;8.88;;;3.70;;
58581;SDS011;44361;51.476;5.700;2023-05-20T04:20:16;8.43;;;3.67;;
58581;SDS011;44361;51.476;5.700;2023-05-20T04:22:42;8.02;;;4.03;;
58581;SDS011;44361;51.476;5.700;2023-05-20T04:25:08;11.32;;;4.55;;
58581;SDS011;44361;51.476;5.700;2023-05-20T04:27:35;7.28;;;3.25;;
58581;SDS011;44361;51.476;5.700;2023-05-20T04:30:01;9.20;;;3.65;;
58581;SDS011;44361;51.476;5.700;2023-05-20T04:32:28;7.50;;;3.45;;
58581;SDS011;44361;51.476;5.700;2023-05-20T04:34:54;9.85;;;4.00;;
58581;SDS011;44361;51.476;5.700;2023-05-20T04:37:20;6.25;;;3.63;;
58581;SDS011;44361;51.476;5.700;2023-05-20T04:39:46;7.25;;;3.85;;
58581;SDS011;44361;51.476;5.700;2023-05-20T04:42:14;8.60;;;3.80;;
58581;SDS011;44361;51.476;5.700;2023-05-20T04:44:42;7.65;;;3.60;;
58581;SDS011;44361;51.476;5.700;2023-05-20T04:47:10;8.85;;;3.92;;
58581;SDS011;44361;51.476;5.700;2023-05-20T04:49:36;7.25;;;3.90;;
58581;SDS011;44361;51.476;5.700;2023-05-20T04:52:02;9.13;;;3.55;;
58581;SDS011;44361;51.476;5.700;2023-05-20T04:54:28;7.72;;;3.60;;
58581;SDS011;44361;51.476;5.700;2023-05-20T04:56:54;7.63;;;3.90;;
58581;SDS011;44361;51.476;5.700;2023-05-20T04:59:20;8.27;;;3.40;;
58581;SDS011;44361;51.476;5.700;2023-05-20T05:01:46;6.38;;;3.42;;
58581;SDS011;44361;51.476;5.700;2023-05-20T05:04:11;7.03;;;3.38;;
58581;SDS011;44361;51.476;5.700;2023-05-20T05:06:37;9.07;;;4.03;;
58581;SDS011;44361;51.476;5.700;2023-05-20T05:09:03;5.43;;;3.28;;
58581;SDS011;44361;51.476;5.700;2023-05-20T05:11:28;7.20;;;3.63;;
58581;SDS011;44361;51.476;5.700;2023-05-20T05:13:54;8.25;;;3.25;;
58581;SDS011;44361;51.476;5.700;2023-05-20T05:16:20;4.10;;;2.63;;
58581;SDS011;44361;51.476;5.700;2023-05-20T05:18:46;5.80;;;2.83;;
58581;SDS011;44361;51.476;5.700;2023-05-20T05:21:11;5.32;;;3.20;;
58581;SDS011;44361;51.476;5.700;2023-05-20T05:23:37;7.50;;;2.90;;
58581;SDS011;44361;51.476;5.700;2023-05-20T05:26:03;7.65;;;3.28;;
58581;SDS011;44361;51.476;5.700;2023-05-20T05:28:28;7.35;;;3.30;;
58581;SDS011;44361;51.476;5.700;2023-05-20T05:30:54;7.45;;;3.15;;
58581;SDS011;44361;51.476;5.700;2023-05-20T05:33:20;5.47;;;3.15;;
58581;SDS011;44361;51.476;5.700;2023-05-20T05:35:46;4.50;;;2.17;;
58581;SDS011;44361;51.476;5.700;2023-05-20T05:38:11;4.40;;;2.67;;
58581;SDS011;44361;51.476;5.700;2023-05-20T05:40:37;5.28;;;2.80;;
58581;SDS011;44361;51.476;5.700;2023-05-20T05:43:03;4.88;;;2.80;;
58581;SDS011;44361;51.476;5.700;2023-05-20T05:45:28;4.90;;;2.67;;
58581;SDS011;44361;51.476;5.700;2023-05-20T05:47:54;4.43;;;2.58;;
58581;SDS011;44361;51.476;5.700;2023-05-20T05:50:19;8.30;;;2.67;;
58581;SDS011;44361;51.476;5.700;2023-05-20T05:52:45;5.63;;;2.67;;
58581;SDS011;44361;51.476;5.700;2023-05-20T05:55:10;6.78;;;2.85;;
58581;SDS011;44361;51.476;5.700;2023-05-20T05:57:36;4.35;;;2.42;;
58581;SDS011;44361;51.476;5.700;2023-05-20T06:00:02;4.45;;;2.53;;
58581;SDS011;44361;51.476;5.700;2023-05-20T06:02:28;4.07;;;2.50;;
58581;SDS011;44361;51.476;5.700;2023-05-20T06:04:54;6.65;;;2.53;;
58581;SDS011;44361;51.476;5.700;2023-05-20T06:07:19;7.25;;;2.50;;
58581;SDS011;44361;51.476;5.700;2023-05-20T06:09:45;8.15;;;2.67;;
58581;SDS011;44361;51.476;5.700;2023-05-20T06:12:11;5.90;;;2.67;;
58581;SDS011;44361;51.476;5.700;2023-05-20T06:14:37;5.30;;;2.60;;
58581;SDS011;44361;51.476;5.700;2023-05-20T06:17:02;3.78;;;2.45;;
58581;SDS011;44361;51.476;5.700;2023-05-20T06:19:28;6.70;;;2.88;;
58581;SDS011;44361;51.476;5.700;2023-05-20T06:21:55;5.68;;;2.72;;
58581;SDS011;44361;51.476;5.700;2023-05-20T06:24:21;3.75;;;2.17;;
58581;SDS011;44361;51.476;5.700;2023-05-20T06:26:47;4.80;;;2.58;;
58581;SDS011;44361;51.476;5.700;2023-05-20T06:29:14;4.13;;;2.63;;
58581;SDS011;44361;51.476;5.700;2023-05-20T06:31:39;4.65;;;2.45;;
58581;SDS011;44361;51.476;5.700;2023-05-20T06:34:05;4.65;;;2.30;;
58581;SDS011;44361;51.476;5.700;2023-05-20T06:36:31;5.97;;;2.42;;
58581;SDS011;44361;51.476;5.700;2023-05-20T06:38:56;7.70;;;2.65;;
58581;SDS011;44361;51.476;5.700;2023-05-20T06:41:22;4.55;;;2.88;;
58581;SDS011;44361;51.476;5.700;2023-05-20T06:43:47;3.67;;;2.25;;
58581;SDS011;44361;51.476;5.700;2023-05-20T06:46:13;4.32;;;2.80;;
58581;SDS011;44361;51.476;5.700;2023-05-20T06:48:38;4.40;;;2.30;;
58581;SDS011;44361;51.476;5.700;2023-05-20T06:51:07;6.07;;;2.65;;
58581;SDS011;44361;51.476;5.700;2023-05-20T06:53:33;5.45;;;2.60;;
58581;SDS011;44361;51.476;5.700;2023-05-20T06:56:00;5.20;;;2.30;;
58581;SDS011;44361;51.476;5.700;2023-05-20T06:58:25;3.90;;;2.50;;
58581;SDS011;44361;51.476;5.700;2023-05-20T07:00:51;4.03;;;2.45;;
58581;SDS011;44361;51.476;5.700;2023-05-20T07:03:17;6.05;;;2.25;;
58581;SDS011;44361;51.476;5.700;2023-05-20T07:05:43;4.65;;;2.28;;
58581;SDS011;44361;51.476;5.700;2023-05-20T07:08:08;5.88;;;2.40;;
58581;SDS011;44361;51.476;5.700;2023-05-20T07:10:34;5.13;;;2.47;;
58581;SDS011;44361;51.476;5.700;2023-05-20T07:13:00;3.42;;;2.38;;
58581;SDS011;44361;51.476;5.700;2023-05-20T07:15:25;3.85;;;2.30;;
58581;SDS011;44361;51.476;5.700;2023-05-20T07:17:51;5.05;;;2.30;;
58581;SDS011;44361;51.476;5.700;2023-05-20T07:20:17;6.13;;;2.25;;
58581;SDS011;44361;51.476;5.700;2023-05-20T07:22:42;4.93;;;2.50;;
58581;SDS011;44361;51.476;5.700;2023-05-20T07:25:08;7.57;;;3.10;;
58581;SDS011;44361;51.476;5.700;2023-05-20T07:27:34;6.20;;;2.42;;
58581;SDS011;44361;51.476;5.700;2023-05-20T07:30:00;5.13;;;2.40;;
58581;SDS011;44361;51.476;5.700;2023-05-20T07:32:26;7.97;;;3.00;;
58581;SDS011;44361;51.476;5.700;2023-05-20T07:34:51;4.43;;;2.55;;
58581;SDS011;44361;51.476;5.700;2023-05-20T07:37:17;4.82;;;2.50;;
58581;SDS011;44361;51.476;5.700;2023-05-20T07:39:43;4.38;;;2.72;;
58581;SDS011;44361;51.476;5.700;2023-05-20T07:42:08;4.63;;;2.60;;
58581;SDS011;44361;51.476;5.700;2023-05-20T07:44:34;4.57;;;2.00;;
58581;SDS011;44361;51.476;5.700;2023-05-20T07:47:00;4.82;;;2.70;;
58581;SDS011;44361;51.476;5.700;2023-05-20T07:49:25;7.00;;;2.80;;
58581;SDS011;44361;51.476;5.700;2023-05-20T07:51:51;5.15;;;2.47;;
58581;SDS011;44361;51.476;5.700;2023-05-20T07:54:16;6.00;;;2.42;;
58581;SDS011;44361;51.476;5.700;2023-05-20T07:56:42;7.28;;;2.33;;
58581;SDS011;44361;51.476;5.700;2023-05-20T07:59:07;5.43;;;2.33;;
58581;SDS011;44361;51.476;5.700;2023-05-20T08:01:33;6.85;;;2.40;;
58581;SDS011;44361;51.476;5.700;2023-05-20T08:03:58;7.70;;;2.05;;
58581;SDS011;44361;51.476;5.700;2023-05-20T08:06:24;5.00;;;2.15;;
58581;SDS011;44361;51.476;5.700;2023-05-20T08:08:50;3.03;;;2.13;;
58581;SDS011;44361;51.476;5.700;2023-05-20T08:11:18;5.55;;;2.47;;
58581;SDS011;44361;51.476;5.700;2023-05-20T08:13:45;5.13;;;2.50;;
58581;SDS011;44361;51.476;5.700;2023-05-20T08:16:11;4.65;;;2.78;;
58581;SDS011;44361;51.476;5.700;2023-05-20T08:18:36;3.55;;;2.28;;
58581;SDS011;44361;51.476;5.700;2023-05-20T08:21:02;5.88;;;2.00;;
58581;SDS011;44361;51.476;5.700;2023-05-20T08:23:29;3.53;;;2.63;;
58581;SDS011;44361;51.476;5.700;2023-05-20T08:25:55;5.38;;;2.38;;
58581;SDS011;44361;51.476;5.700;2023-05-20T08:28:21;6.05;;;2.30;;
58581;SDS011;44361;51.476;5.700;2023-05-20T08:30:47;7.15;;;2.97;;
58581;SDS011;44361;51.476;5.700;2023-05-20T08:33:12;6.43;;;2.33;;
58581;SDS011;44361;51.476;5.700;2023-05-20T08:35:39;6.72;;;2.25;;
58581;SDS011;44361;51.476;5.700;2023-05-20T08:38:04;6.90;;;2.17;;
58581;SDS011;44361;51.476;5.700;2023-05-20T08:40:30;3.10;;;2.10;;
58581;SDS011;44361;51.476;5.700;2023-05-20T08:42:59;4.18;;;2.40;;
58581;SDS011;44361;51.476;5.700;2023-05-20T08:45:26;3.60;;;2.05;;
58581;SDS011;44361;51.476;5.700;2023-05-20T08:47:52;4.13;;;2.00;;
58581;SDS011;44361;51.476;5.700;2023-05-20T08:50:18;3.33;;;1.90;;
58581;SDS011;44361;51.476;5.700;2023-05-20T08:52:45;5.07;;;2.22;;
58581;SDS011;44361;51.476;5.700;2023-05-20T08:55:23;4.93;;;1.92;;
58581;SDS011;44361;51.476;5.700;2023-05-20T08:58:01;3.33;;;2.30;;
58581;SDS011;44361;51.476;5.700;2023-05-20T09:00:27;4.70;;;2.45;;
58581;SDS011;44361;51.476;5.700;2023-05-20T09:02:53;3.08;;;2.25;;
58581;SDS011;44361;51.476;5.700;2023-05-20T09:05:19;3.58;;;2.58;;
58581;SDS011;44361;51.476;5.700;2023-05-20T09:07:46;3.78;;;2.10;;
58581;SDS011;44361;51.476;5.700;2023-05-20T09:10:11;3.67;;;2.08;;
58581;SDS011;44361;51.476;5.700;2023-05-20T09:12:37;3.63;;;2.50;;
58581;SDS011;44361;51.476;5.700;2023-05-20T09:15:03;5.32;;;2.50;;
58581;SDS011;44361;51.476;5.700;2023-05-20T09:17:30;3.35;;;2.05;;
58581;SDS011;44361;51.476;5.700;2023-05-20T09:19:56;3.90;;;2.05;;
58581;SDS011;44361;51.476;5.700;2023-05-20T09:22:25;5.43;;;1.95;;
58581;SDS011;44361;51.476;5.700;2023-05-20T09:24:51;6.30;;;2.20;;
58581;SDS011;44361;51.476;5.700;2023-05-20T09:27:18;4.22;;;1.88;;
58581;SDS011;44361;51.476;5.700;2023-05-20T09:29:46;4.47;;;2.08;;
58581;SDS011;44361;51.476;5.700;2023-05-20T09:32:13;4.10;;;2.20;;
58581;SDS011;44361;51.476;5.700;2023-05-20T09:34:39;3.17;;;1.95;;
58581;SDS011;44361;51.476;5.700;2023-05-20T09:37:07;2.92;;;1.63;;
58581;SDS011;44361;51.476;5.700;2023-05-20T09:39:35;7.75;;;1.63;;
58581;SDS011;44361;51.476;5.700;2023-05-20T09:42:26;2.80;;;1.58;;
58581;SDS011;44361;51.476;5.700;2023-05-20T09:44:55;2.55;;;1.73;;
58581;SDS011;44361;51.476;5.700;2023-05-20T09:47:22;5.70;;;1.52;;
58581;SDS011;44361;51.476;5.700;2023-05-20T09:49:49;3.10;;;1.60;;
58581;SDS011;44361;51.476;5.700;2023-05-20T09:52:16;2.80;;;1.70;;
58581;SDS011;44361;51.476;5.700;2023-05-20T09:54:42;4.20;;;1.83;;
58581;SDS011;44361;51.476;5.700;2023-05-20T09:57:08;4.55;;;1.88;;
58581;SDS011;44361;51.476;5.700;2023-05-20T09:59:35;3.42;;;2.00;;
58581;SDS011;44361;51.476;5.700;2023-05-20T10:02:02;2.83;;;1.70;;
58581;SDS011;44361;51.476;5.700;2023-05-20T10:04:30;4.40;;;1.80;;
58581;SDS011;44361;51.476;5.700;2023-05-20T10:15:48;3.10;;;1.90;;
58581;SDS011;44361;51.476;5.700;2023-05-20T10:18:39;4.57;;;2.42;;
58581;SDS011;44361;51.476;5.700;2023-05-20T10:21:15;4.75;;;2.25;;
58581;SDS011;44361;51.476;5.700;2023-05-20T10:23:42;4.55;;;1.90;;
58581;SDS011;44361;51.476;5.700;2023-05-20T10:26:08;3.70;;;1.90;;
58581;SDS011;44361;51.476;5.700;2023-05-20T10:28:34;4.45;;;2.45;;
58581;SDS011;44361;51.476;5.700;2023-05-20T10:31:01;3.20;;;1.75;;
58581;SDS011;44361;51.476;5.700;2023-05-20T10:33:28;3.35;;;2.25;;
58581;SDS011;44361;51.476;5.700;2023-05-20T10:35:57;5.28;;;2.33;;
58581;SDS011;44361;51.476;5.700;2023-05-20T10:38:23;2.65;;;1.95;;
58581;SDS011;44361;51.476;5.700;2023-05-20T10:40:49;3.80;;;2.25;;
58581;SDS011;44361;51.476;5.700;2023-05-20T10:43:15;4.57;;;1.95;;
58581;SDS011;44361;51.476;5.700;2023-05-20T10:45:55;2.72;;;1.90;;
58581;SDS011;44361;51.476;5.700;2023-05-20T10:48:28;6.18;;;2.05;;
58581;SDS011;44361;51.476;5.700;2023-05-20T10:50:56;3.53;;;1.70;;
58581;SDS011;44361;51.476;5.700;2023-05-20T10:53:23;3.95;;;1.50;;
58581;SDS011;44361;51.476;5.700;2023-05-20T10:55:50;5.47;;;2.28;;
58581;SDS011;44361;51.476;5.700;2023-05-20T10:58:17;4.32;;;1.88;;
58581;SDS011;44361;51.476;5.700;2023-05-20T11:00:46;2.35;;;1.55;;
58581;SDS011;44361;51.476;5.700;2023-05-20T11:03:13;2.90;;;1.75;;
58581;SDS011;44361;51.476;5.700;2023-05-20T11:05:40;5.85;;;1.70;;
58581;SDS011;44361;51.476;5.700;2023-05-20T11:08:07;2.47;;;1.80;;
58581;SDS011;44361;51.476;5.700;2023-05-20T11:10:33;3.83;;;1.52;;
58581;SDS011;44361;51.476;5.700;2023-05-20T11:13:00;4.47;;;2.00;;
58581;SDS011;44361;51.476;5.700;2023-05-20T11:15:26;2.90;;;1.70;;
58581;SDS011;44361;51.476;5.700;2023-05-20T11:17:55;3.42;;;1.88;;
58581;SDS011;44361;51.476;5.700;2023-05-20T11:20:22;3.83;;;2.08;;
58581;SDS011;44361;51.476;5.700;2023-05-20T11:22:55;3.25;;;1.88;;
58581;SDS011;44361;51.476;5.700;2023-05-20T11:25:21;2.22;;;1.77;;
58581;SDS011;44361;51.476;5.700;2023-05-20T11:27:49;2.75;;;1.70;;
58581;SDS011;44361;51.476;5.700;2023-05-20T11:30:16;3.25;;;1.70;;
58581;SDS011;44361;51.476;5.700;2023-05-20T11:33:02;2.45;;;1.50;;
58581;SDS011;44361;51.476;5.700;2023-05-20T11:35:29;3.05;;;1.73;;
58581;SDS011;44361;51.476;5.700;2023-05-20T11:40:25;2.22;;;1.73;;
58581;SDS011;44361;51.476;5.700;2023-05-20T11:42:54;2.28;;;1.50;;
58581;SDS011;44361;51.476;5.700;2023-05-20T11:45:21;3.28;;;1.50;;
58581;SDS011;44361;51.476;5.700;2023-05-20T11:47:57;3.25;;;1.60;;
58581;SDS011;44361;51.476;5.700;2023-05-20T11:50:24;3.03;;;1.65;;
58581;SDS011;44361;51.476;5.700;2023-05-20T11:52:57;5.40;;;1.90;;
58581;SDS011;44361;51.476;5.700;2023-05-20T11:55:24;5.68;;;1.95;;
58581;SDS011;44361;51.476;5.700;2023-05-20T11:57:56;3.28;;;2.03;;
58581;SDS011;44361;51.476;5.700;2023-05-20T12:00:23;6.63;;;1.80;;
58581;SDS011;44361;51.476;5.700;2023-05-20T12:02:49;6.60;;;1.90;;
58581;SDS011;44361;51.476;5.700;2023-05-20T12:05:14;2.95;;;1.80;;
58581;SDS011;44361;51.476;5.700;2023-05-20T12:07:40;2.75;;;1.88;;
58581;SDS011;44361;51.476;5.700;2023-05-20T12:10:06;2.67;;;1.85;;
58581;SDS011;44361;51.476;5.700;2023-05-20T12:12:32;6.05;;;2.10;;
58581;SDS011;44361;51.476;5.700;2023-05-20T12:14:58;2.67;;;1.70;;
58581;SDS011;44361;51.476;5.700;2023-05-20T12:17:23;2.50;;;1.75;;
58581;SDS011;44361;51.476;5.700;2023-05-20T12:19:49;2.63;;;1.65;;
58581;SDS011;44361;51.476;5.700;2023-05-20T12:22:14;4.07;;;2.20;;
58581;SDS011;44361;51.476;5.700;2023-05-20T12:24:40;2.97;;;2.10;;
58581;SDS011;44361;51.476;5.700;2023-05-20T12:27:05;2.85;;;1.67;;
58581;SDS011;44361;51.476;5.700;2023-05-20T12:29:32;4.75;;;2.00;;
58581;SDS011;44361;51.476;5.700;2023-05-20T12:31:58;3.35;;;2.05;;
58581;SDS011;44361;51.476;5.700;2023-05-20T12:34:24;2.55;;;1.88;;
58581;SDS011;44361;51.476;5.700;2023-05-20T12:36:50;3.03;;;1.75;;
58581;SDS011;44361;51.476;5.700;2023-05-20T12:39:16;4.47;;;1.52;;
58581;SDS011;44361;51.476;5.700;2023-05-20T12:41:43;3.88;;;1.67;;
58581;SDS011;44361;51.476;5.700;2023-05-20T12:44:09;6.57;;;2.47;;
58581;SDS011;44361;51.476;5.700;2023-05-20T12:46:35;3.78;;;1.98;;
58581;SDS011;44361;51.476;5.700;2023-05-20T12:49:01;2.67;;;1.80;;
58581;SDS011;44361;51.476;5.700;2023-05-20T12:51:27;2.85;;;1.70;;
58581;SDS011;44361;51.476;5.700;2023-05-20T12:53:53;4.78;;;2.13;;
58581;SDS011;44361;51.476;5.700;2023-05-20T12:56:19;2.50;;;1.80;;
58581;SDS011;44361;51.476;5.700;2023-05-20T12:58:45;2.95;;;1.90;;
58581;SDS011;44361;51.476;5.700;2023-05-20T13:01:10;2.58;;;2.17;;
58581;SDS011;44361;51.476;5.700;2023-05-20T13:03:36;2.70;;;1.80;;
58581;SDS011;44361;51.476;5.700;2023-05-20T13:06:01;4.13;;;2.17;;
58581;SDS011;44361;51.476;5.700;2023-05-20T13:08:28;4.30;;;2.10;;
58581;SDS011;44361;51.476;5.700;2023-05-20T13:10:53;3.55;;;1.90;;
58581;SDS011;44361;51.476;5.700;2023-05-20T13:13:19;6.40;;;1.75;;
58581;SDS011;44361;51.476;5.700;2023-05-20T13:15:49;4.60;;;2.50;;
58581;SDS011;44361;51.476;5.700;2023-05-20T13:18:15;2.97;;;1.88;;
58581;SDS011;44361;51.476;5.700;2023-05-20T13:20:41;3.58;;;2.00;;
58581;SDS011;44361;51.476;5.700;2023-05-20T13:23:07;4.13;;;1.75;;
58581;SDS011;44361;51.476;5.700;2023-05-20T13:25:33;5.35;;;2.40;;
58581;SDS011;44361;51.476;5.700;2023-05-20T13:27:58;5.72;;;3.00;;
58581;SDS011;44361;51.476;5.700;2023-05-20T13:30:24;3.10;;;1.92;;
58581;SDS011;44361;51.476;5.700;2023-05-20T13:32:50;4.50;;;2.47;;
58581;SDS011;44361;51.476;5.700;2023-05-20T13:35:16;3.15;;;2.00;;
58581;SDS011;44361;51.476;5.700;2023-05-20T13:37:42;3.10;;;1.92;;
58581;SDS011;44361;51.476;5.700;2023-05-20T13:40:07;5.97;;;1.75;;
58581;SDS011;44361;51.476;5.700;2023-05-20T13:42:33;2.85;;;2.05;;
58581;SDS011;44361;51.476;5.700;2023-05-20T13:44:59;3.78;;;2.13;;
58581;SDS011;44361;51.476;5.700;2023-05-20T13:47:27;4.70;;;2.28;;
58581;SDS011;44361;51.476;5.700;2023-05-20T13:49:53;2.47;;;1.75;;
58581;SDS011;44361;51.476;5.700;2023-05-20T13:52:18;3.20;;;1.83;;
58581;SDS011;44361;51.476;5.700;2023-05-20T13:54:44;8.60;;;1.88;;
58581;SDS011;44361;51.476;5.700;2023-05-20T13:57:11;3.33;;;1.60;;
58581;SDS011;44361;51.476;5.700;2023-05-20T13:59:37;2.72;;;1.73;;
58581;SDS011;44361;51.476;5.700;2023-05-20T14:02:02;3.28;;;1.77;;
58581;SDS011;44361;51.476;5.700;2023-05-20T14:04:28;2.67;;;2.05;;
58581;SDS011;44361;51.476;5.700;2023-05-20T14:06:55;3.03;;;1.55;;
58581;SDS011;44361;51.476;5.700;2023-05-20T14:09:20;2.25;;;1.70;;
58581;SDS011;44361;51.476;5.700;2023-05-20T14:11:46;2.58;;;1.90;;
58581;SDS011;44361;51.476;5.700;2023-05-20T14:14:11;3.72;;;1.63;;
58581;SDS011;44361;51.476;5.700;2023-05-20T14:16:37;4.05;;;2.08;;
58581;SDS011;44361;51.476;5.700;2023-05-20T14:19:03;3.83;;;1.90;;
58581;SDS011;44361;51.476;5.700;2023-05-20T14:21:29;4.40;;;1.80;;
58581;SDS011;44361;51.476;5.700;2023-05-20T14:23:56;3.67;;;1.92;;
58581;SDS011;44361;51.476;5.700;2023-05-20T14:26:22;2.97;;;1.40;;
58581;SDS011;44361;51.476;5.700;2023-05-20T14:28:48;3.05;;;1.70;;
58581;SDS011;44361;51.476;5.700;2023-05-20T14:31:13;3.13;;;1.70;;
58581;SDS011;44361;51.476;5.700;2023-05-20T14:33:39;6.10;;;2.38;;
58581;SDS011;44361;51.476;5.700;2023-05-20T14:36:05;5.75;;;2.90;;
58581;SDS011;44361;51.476;5.700;2023-05-20T14:38:31;6.10;;;1.83;;
58581;SDS011;44361;51.476;5.700;2023-05-20T14:40:56;3.05;;;1.75;;
58581;SDS011;44361;51.476;5.700;2023-05-20T14:43:22;4.72;;;2.22;;
58581;SDS011;44361;51.476;5.700;2023-05-20T14:45:47;3.25;;;1.67;;
58581;SDS011;44361;51.476;5.700;2023-05-20T14:48:13;2.30;;;1.60;;
58581;SDS011;44361;51.476;5.700;2023-05-20T14:50:39;4.95;;;2.17;;
58581;SDS011;44361;51.476;5.700;2023-05-20T14:53:04;3.88;;;1.92;;
58581;SDS011;44361;51.476;5.700;2023-05-20T14:55:30;3.47;;;2.30;;
58581;SDS011;44361;51.476;5.700;2023-05-20T14:57:55;5.30;;;2.10;;